« Back
NWS Peachtree City, Ga » Text Product » AHN Terminal Aerodrome Forecast


Printer-friendly Version
Current Version              Previous Versions:   1  2  3  4  5  6  7  8  9  

Terminal Aerodrome Forecast

935
FTUS42 KFFC 221700
TAFAHN
TAF
KAHN 221733Z 2218/2318 34010KT P6SM FEW100 SCT250
     FM222300 05005KT P6SM FEW150
     FM231400 05009KT P6SM FEW050=



USA.gov is the U.S. government's official web portal to all federal, state and local government web resources and services.